Time;durP1;ratioP1;P1;durP2;ratioP2;P2;SDS_P1;SDS_P2;PMS_P1;PMS_P2;Temp;Humidity;BMP_temperature;BMP_pressure;BME280_temperature;BME280_humidity;BME280_pressure;Samples;Min_cycle;Max_cycle;Signal;HPM_P1;HPM_P2
2021/07/24 00:01:01;;;;;;;17.07;12.68;;;;;;;17.60;72.38;97186.35;1766609;79;25764;-87
2021/07/24 00:03:28;;;;;;;17.35;12.73;;;;;;;17.56;72.43;97194.77;1759296;78;25738;-87
2021/07/24 00:05:55;;;;;;;16.48;12.80;;;;;;;17.50;72.41;97185.45;1779219;78;25995;-87
2021/07/24 00:08:22;;;;;;;16.67;12.95;;;;;;;17.47;72.44;97187.33;1784609;78;25924;-87
2021/07/24 00:10:48;;;;;;;17.77;13.48;;;;;;;17.43;72.54;97182.10;1793147;78;27387;-87
2021/07/24 00:13:16;;;;;;;16.97;12.88;;;;;;;17.39;72.53;97185.88;1769700;78;25777;-86
2021/07/24 00:15:42;;;;;;;19.17;13.15;;;;;;;17.34;72.55;97185.86;1759508;79;25820;-86
2021/07/24 00:18:09;;;;;;;17.85;12.88;;;;;;;17.30;72.60;97188.81;1769572;79;25848;-86
2021/07/24 00:20:35;;;;;;;20.00;12.73;;;;;;;17.25;72.65;97188.24;1764729;79;26123;-86
2021/07/24 00:23:03;;;;;;;16.60;12.90;;;;;;;17.20;72.66;97184.62;1765797;79;27385;-87
2021/07/24 00:25:30;;;;;;;19.90;13.22;;;;;;;17.15;72.68;97188.66;1740208;80;26399;-87
2021/07/24 00:27:57;;;;;;;19.90;11.93;;;;;;;17.10;72.69;97179.09;1725359;81;26201;-88
2021/07/24 00:30:24;;;;;;;18.45;12.45;;;;;;;17.05;72.69;97179.02;1770577;77;25831;-87
2021/07/24 00:32:51;;;;;;;16.67;12.28;;;;;;;17.02;72.66;97183.11;1790762;77;25610;-86
2021/07/24 00:35:19;;;;;;;15.70;12.18;;;;;;;16.99;72.79;97179.53;1785802;78;27468;-86
2021/07/24 00:37:45;;;;;;;18.85;12.85;;;;;;;16.95;72.75;97178.39;1790838;78;25909;-86
2021/07/24 00:40:15;;;;;;;15.75;11.90;;;;;;;16.89;72.75;97182.16;1777137;78;25771;-86
2021/07/24 00:42:46;;;;;;;15.65;11.45;;;;;;;16.84;72.71;97176.64;1789843;78;25819;-87
2021/07/24 00:45:14;;;;;;;16.62;11.80;;;;;;;16.79;72.81;97178.76;1759933;78;25800;-87
2021/07/24 00:47:45;;;;;;;16.85;12.25;;;;;;;16.73;72.84;97178.44;1789876;77;27396;-86
2021/07/24 00:50:15;;;;;;;16.07;12.25;;;;;;;16.64;72.86;97178.61;1805841;77;26269;-86
2021/07/24 00:52:43;;;;;;;16.20;12.23;;;;;;;16.60;73.00;97178.80;1803102;77;26313;-87
2021/07/24 00:55:13;;;;;;;13.55;11.05;;;;;;;16.57;73.08;97179.30;1802733;77;26001;-86
2021/07/24 00:57:41;;;;;;;15.30;11.45;;;;;;;16.52;73.04;97183.34;1763895;79;25744;-88
2021/07/24 01:00:09;;;;;;;17.05;11.40;;;;;;;16.48;72.99;97178.11;1735778;80;27411;-86
2021/07/24 01:02:39;;;;;;;15.03;11.18;;;;;;;16.41;72.90;97175.59;1707213;80;26064;-87
2021/07/24 01:05:07;;;;;;;16.48;10.90;;;;;;;16.36;72.96;97170.07;1707492;80;25828;-88
2021/07/24 01:07:38;;;;;;;17.32;11.35;;;;;;;16.34;73.11;97178.20;1773977;77;25776;-86
2021/07/24 01:10:07;;;;;;;23.62;11.63;;;;;;;16.31;73.01;97174.08;1786006;77;25846;-87
2021/07/24 01:12:35;;;;;;;15.20;11.43;;;;;;;16.26;73.00;97173.20;1758209;78;27402;-87
2021/07/24 01:15:06;;;;;;;16.40;11.25;;;;;;;16.21;73.08;97170.70;1798662;77;25738;-86
2021/07/24 01:17:33;;;;;;;13.18;11.35;;;;;;;16.17;73.00;97164.66;1778562;79;25697;-87
2021/07/24 01:20:03;;;;;;;16.82;11.78;;;;;;;16.12;73.11;97165.41;1769935;79;26343;-86
2021/07/24 01:22:30;;;;;;;16.90;11.68;;;;;;;16.08;73.11;97164.80;1775534;77;26342;-87
2021/07/24 01:24:56;;;;;;;14.83;11.73;;;;;;;16.03;73.11;97163.38;1802978;77;27427;-87
2021/07/24 01:27:23;;;;;;;14.43;11.43;;;;;;;15.99;73.23;97165.77;1775097;78;25997;-86
2021/07/24 01:29:50;;;;;;;18.10;12.13;;;;;;;15.94;73.22;97160.25;1788965;77;25716;-86
2021/07/24 01:32:16;;;;;;;14.58;11.43;;;;;;;15.91;73.34;97159.41;1806902;77;25770;-86
2021/07/24 01:34:46;;;;;;;16.85;11.73;;;;;;;15.88;73.29;97159.91;1811770;77;25807;-86
2021/07/24 01:37:13;;;;;;;17.25;11.57;;;;;;;15.83;73.30;97154.38;1808786;77;27410;-86
2021/07/24 01:39:39;;;;;;;15.53;10.53;;;;;;;15.78;73.33;97152.42;1803747;77;25797;-86
2021/07/24 01:42:06;;;;;;;15.43;11.28;;;;;;;15.76;73.47;97145.58;1820308;77;25750;-86
2021/07/24 01:44:32;;;;;;;15.58;11.38;;;;;;;15.73;73.36;97148.27;1787878;77;26389;-86
2021/07/24 01:47:00;;;;;;;13.60;11.60;;;;;;;15.74;73.35;97142.28;1748572;80;25875;-86
2021/07/24 01:55:13;;;;;;;18.50;12.07;;;;;;;15.62;73.42;97142.92;1805412;77;25783;-88
2021/07/24 01:57:43;;;;;;;21.57;12.37;;;;;;;15.58;73.45;97140.43;1818171;77;26392;-87
2021/07/24 02:00:12;;;;;;;14.55;10.78;;;;;;;15.53;73.41;97141.14;1795859;77;25779;-87
2021/07/24 02:02:41;;;;;;;14.23;10.98;;;;;;;15.48;73.40;97140.52;1806648;77;27417;-87
2021/07/24 02:05:19;;;;;;;12.78;10.30;;;;;;;15.43;73.41;97147.25;1807006;77;25874;-89
2021/07/24 02:07:48;;;;;;;11.97;9.83;;;;;;;15.40;73.47;97142.83;1794853;77;25724;-88
2021/07/24 02:10:15;;;;;;;13.53;9.75;;;;;;;15.37;73.47;97146.86;1819929;77;26189;-88
2021/07/24 02:12:41;;;;;;;17.57;10.90;;;;;;;15.34;73.40;97151.44;1787491;77;26225;-88
2021/07/24 02:15:09;;;;;;;16.27;10.18;;;;;;;15.31;73.39;97145.69;1770253;79;28264;-88
2021/07/24 02:17:38;;;;;;;14.75;10.68;;;;;;;15.26;73.43;97143.70;1770847;79;25816;-87
2021/07/24 02:20:07;;;;;;;16.00;10.93;;;;;;;15.23;73.47;97149.63;1770055;79;25779;-87
2021/07/24 02:22:33;;;;;;;19.35;10.68;;;;;;;15.19;73.53;97144.95;1749530;79;26259;-87
2021/07/24 02:25:00;;;;;;;16.17;10.82;;;;;;;15.15;73.57;97141.89;1741575;80;25678;-89
2021/07/24 02:27:26;;;;;;;17.77;10.88;;;;;;;15.11;73.56;97143.44;1759498;79;27422;-88
2021/07/24 02:29:53;;;;;;;17.37;10.98;;;;;;;15.07;73.61;97140.41;1782229;77;26228;-89
2021/07/24 02:32:20;;;;;;;12.82;9.98;;;;;;;15.04;73.61;97140.89;1784764;77;25278;-89
2021/07/24 02:34:46;;;;;;;15.03;11.68;;;;;;;15.01;73.62;97148.17;1810058;77;26490;-87
2021/07/24 02:37:13;;;;;;;12.95;10.50;;;;;;;14.97;73.68;97144.85;1735159;80;25506;-87
2021/07/24 02:39:40;;;;;;;19.15;10.85;;;;;;;14.94;73.76;97142.08;1723958;80;27427;-88
2021/07/24 02:42:06;;;;;;;14.75;10.50;;;;;;;14.93;73.80;97143.69;1732101;80;25932;-86
2021/07/24 02:44:33;;;;;;;17.40;11.70;;;;;;;14.83;73.67;97146.23;1791533;77;25999;-93
2021/07/24 02:47:00;;;;;;;16.37;12.07;;;;;;;14.77;73.82;97151.56;1787222;77;26244;-90
2021/07/24 02:49:26;;;;;;;18.45;11.18;;;;;;;14.74;73.95;97158.00;1775874;79;25308;-88
2021/07/24 02:51:53;;;;;;;19.10;11.73;;;;;;;14.71;73.98;97157.16;1777040;79;27442;-86
2021/07/24 02:54:20;;;;;;;17.50;10.40;;;;;;;14.69;74.04;97162.00;1767300;79;26006;-85
2021/07/24 02:56:46;;;;;;;15.35;10.32;;;;;;;14.68;74.07;97153.03;1745726;79;26091;-84
2021/07/24 02:59:13;;;;;;;13.08;9.43;;;;;;;14.67;73.93;97157.34;1766883;79;26396;-86
2021/07/24 03:01:40;;;;;;;12.88;9.53;;;;;;;14.63;73.90;97155.63;1736871;80;25854;-86
2021/07/24 03:04:07;;;;;;;14.07;10.03;;;;;;;14.61;73.99;97159.13;1769646;79;28364;-89
2021/07/24 03:06:34;;;;;;;14.70;10.72;;;;;;;14.58;73.97;97162.34;1774906;79;25879;-85
2021/07/24 03:09:03;;;;;;;13.05;10.60;;;;;;;14.54;73.94;97159.81;1763692;79;25771;-86
2021/07/24 03:11:30;;;;;;;15.60;10.38;;;;;;;14.54;74.09;97158.98;1760880;79;25754;-85
2021/07/24 03:13:56;;;;;;;13.15;9.70;;;;;;;14.55;74.24;97164.18;1703476;81;25723;-86
2021/07/24 03:16:23;;;;;;;13.68;9.90;;;;;;;14.53;74.15;97160.05;1789884;78;26859;-88
2021/07/24 03:18:51;;;;;;;13.40;10.10;;;;;;;14.50;74.09;97164.06;1762200;79;25882;-86
2021/07/24 03:21:19;;;;;;;12.88;10.40;;;;;;;14.50;74.19;97161.89;1794915;77;26221;-88
2021/07/24 03:23:45;;;;;;;14.10;10.50;;;;;;;14.49;74.18;97170.56;1805431;78;26261;-85
2021/07/24 03:26:13;;;;;;;15.83;10.60;;;;;;;14.46;74.26;97171.07;1788610;77;25730;-86
2021/07/24 03:28:39;;;;;;;12.85;10.75;;;;;;;14.42;74.31;97161.75;1766845;79;27393;-85
2021/07/24 03:31:06;;;;;;;16.40;11.95;;;;;;;14.41;74.39;97162.81;1761814;79;25922;-86
2021/07/24 03:33:33;;;;;;;17.62;9.98;;;;;;;14.40;74.40;97164.70;1770902;79;25878;-85
2021/07/24 03:35:59;;;;;;;14.80;10.43;;;;;;;14.40;74.46;97167.42;1795185;77;26301;-85
2021/07/24 03:38:27;;;;;;;15.45;10.55;;;;;;;14.40;74.47;97172.02;1789178;77;25711;-88
2021/07/24 03:40:54;;;;;;;13.62;10.40;;;;;;;14.39;74.44;97164.41;1815880;77;28267;-85
2021/07/24 03:43:21;;;;;;;11.03;9.63;;;;;;;14.37;74.44;97167.03;1770717;77;26092;-84
2021/07/24 03:45:48;;;;;;;12.50;9.53;;;;;;;14.37;74.51;97162.96;1805222;77;25661;-85
2021/07/24 03:48:15;;;;;;;13.18;9.73;;;;;;;14.39;74.54;97168.98;1789519;77;25991;-86
2021/07/24 03:50:46;;;;;;;13.58;10.85;;;;;;;14.39;74.51;97168.98;1747183;78;25812;-84
2021/07/24 03:53:10;;;;;;;16.70;10.20;;;;;;;14.39;74.54;97162.19;1779301;79;27126;-86
2021/07/24 03:55:37;;;;;;;17.67;11.22;;;;;;;14.40;74.57;97163.34;1772274;79;25765;-84
2021/07/24 03:58:04;;;;;;;14.53;10.23;;;;;;;14.41;74.58;97160.92;1783950;79;25678;-85
2021/07/24 04:00:49;;;;;;;15.98;11.45;;;;;;;14.41;74.58;97168.24;1781683;79;25755;-88
2021/07/24 04:03:02;;;;;;;14.13;10.75;;;;;;;14.41;74.59;97169.59;1757137;79;26300;-88
2021/07/24 04:05:33;;;;;;;17.57;11.33;;;;;;;14.41;74.66;97166.36;1742134;80;27442;-87
2021/07/24 04:08:00;;;;;;;15.75;11.05;;;;;;;14.43;74.65;97167.48;1701727;79;26015;-89
2021/07/24 04:10:27;;;;;;;15.28;10.00;;;;;;;14.44;74.69;97162.34;1730058;80;26487;-90
2021/07/24 04:12:53;;;;;;;18.25;10.35;;;;;;;14.43;74.70;97166.12;1770294;79;26251;-85
2021/07/24 04:15:20;;;;;;;13.83;10.55;;;;;;;14.43;74.80;97170.19;1768035;78;25826;-87
2021/07/24 04:17:47;;;;;;;14.40;10.98;;;;;;;14.44;74.85;97163.69;1792187;77;28187;-88
2021/07/24 04:20:15;;;;;;;15.88;10.80;;;;;;;14.45;74.85;97165.34;1812250;78;25715;-89
2021/07/24 04:22:42;;;;;;;14.13;11.03;;;;;;;14.45;74.92;97168.59;1774917;77;25815;-83
2021/07/24 04:25:09;;;;;;;16.32;11.78;;;;;;;14.46;74.98;97165.64;1776654;79;25756;-87
2021/07/24 04:27:35;;;;;;;18.10;10.82;;;;;;;14.49;75.02;97167.05;1757372;79;26314;-86
2021/07/24 04:30:03;;;;;;;14.83;11.05;;;;;;;14.51;75.06;97167.61;1797595;77;27475;-85
2021/07/24 04:32:30;;;;;;;17.77;12.23;;;;;;;14.54;75.08;97172.56;1782178;79;25255;-89
2021/07/24 04:34:56;;;;;;;14.40;10.93;;;;;;;14.55;75.13;97162.83;1749524;81;25761;-86
2021/07/24 04:37:23;;;;;;;15.43;10.82;;;;;;;14.57;75.12;97163.94;1786867;78;26227;-88
2021/07/24 04:39:50;;;;;;;12.45;10.65;;;;;;;14.59;75.18;97162.64;1796156;78;25815;-84
2021/07/24 04:42:16;;;;;;;18.73;11.33;;;;;;;14.62;75.27;97164.84;1806792;78;28233;-87
2021/07/24 04:44:43;;;;;;;16.42;10.40;;;;;;;14.65;75.27;97154.86;1791649;78;25879;-85
2021/07/24 04:47:10;;;;;;;19.75;11.70;;;;;;;14.70;75.35;97159.05;1817022;78;25716;-86
2021/07/24 04:49:50;;;;;;;19.35;11.83;;;;;;;14.73;75.36;97160.45;1787339;77;25730;-86
2021/07/24 04:52:18;;;;;;;18.98;13.13;;;;;;;14.77;75.36;97165.14;1784310;77;25677;-85
2021/07/24 04:54:48;;;;;;;17.52;13.05;;;;;;;14.83;75.46;97157.09;1764173;78;27629;-87
2021/07/24 04:57:17;;;;;;;17.82;12.70;;;;;;;14.88;75.51;97161.25;1806495;77;26321;-84
2021/07/24 04:59:48;;;;;;;21.95;12.78;;;;;;;14.93;75.51;97161.35;1811736;78;25807;-83
2021/07/24 05:02:20;;;;;;;18.77;12.28;;;;;;;14.98;75.56;97162.78;1791763;77;25818;-86
2021/07/24 05:04:48;;;;;;;21.60;12.45;;;;;;;15.03;75.60;97149.30;1765523;79;31937;-85
2021/07/24 05:07:20;;;;;;;16.97;12.05;;;;;;;15.07;75.57;97146.38;1806690;77;27278;-85
2021/07/24 05:09:47;;;;;;;19.15;12.70;;;;;;;15.13;75.60;97141.30;1816860;77;33214;-86
2021/07/24 05:12:13;;;;;;;16.40;11.10;;;;;;;15.17;75.60;97147.91;1812096;77;25726;-84
2021/07/24 05:14:40;;;;;;;16.52;11.70;;;;;;;15.22;75.62;97146.61;1768115;79;25768;-85
2021/07/24 05:17:13;;;;;;;23.55;12.30;;;;;;;15.28;75.69;97138.84;1776744;78;25456;-87
2021/07/24 05:19:43;;;;;;;22.50;13.28;;;;;;;15.35;75.77;97138.66;1789673;78;27386;-87
2021/07/24 05:22:12;;;;;;;26.42;16.10;;;;;;;15.41;75.81;97143.13;1784831;77;25817;-85
2021/07/24 05:24:46;;;;;;;23.38;14.65;;;;;;;15.47;75.74;97141.58;1787164;77;25874;-88
2021/07/24 05:27:14;;;;;;;24.10;15.55;;;;;;;15.55;75.69;97136.84;1798239;78;25743;-86
2021/07/24 05:29:41;;;;;;;17.37;13.25;;;;;;;15.62;75.65;97140.20;1763136;80;25746;-87
2021/07/24 05:32:08;;;;;;;18.80;12.75;;;;;;;15.68;75.69;97136.50;1750837;80;28331;-86
2021/07/24 05:34:35;;;;;;;17.50;12.65;;;;;;;15.75;75.68;97134.41;1754423;80;25713;-86
2021/07/24 05:37:03;;;;;;;19.75;12.68;;;;;;;15.83;75.61;97133.97;1759763;79;25955;-86
2021/07/24 05:39:30;;;;;;;21.25;12.35;;;;;;;15.90;75.61;97136.52;1783979;79;25679;-86
2021/07/24 05:41:56;;;;;;;18.80;13.28;;;;;;;15.97;75.44;97133.89;1758986;79;25767;-86
2021/07/24 05:44:23;;;;;;;18.55;13.15;;;;;;;16.05;75.29;97134.02;1730106;81;26884;-87
2021/07/24 05:46:49;;;;;;;16.77;12.70;;;;;;;16.12;75.27;97125.93;1813776;78;25676;-86
2021/07/24 05:49:16;;;;;;;18.62;12.55;;;;;;;16.19;75.13;97129.81;1795421;78;25808;-87
2021/07/24 05:51:43;;;;;;;18.60;13.00;;;;;;;16.27;75.11;97134.83;1812872;77;25770;-87
2021/07/24 05:54:10;;;;;;;17.20;13.68;;;;;;;16.35;75.06;97131.65;1845513;77;25783;-86
2021/07/24 05:56:38;;;;;;;17.10;13.32;;;;;;;16.43;75.10;97133.09;1812079;78;28584;-87
2021/07/24 05:59:04;;;;;;;20.32;14.05;;;;;;;16.51;75.08;97129.39;1784577;78;25827;-86
2021/07/24 06:01:31;;;;;;;21.27;14.10;;;;;;;16.60;75.07;97129.75;1794159;78;25707;-86
2021/07/24 06:03:58;;;;;;;17.35;13.85;;;;;;;16.68;75.13;97125.22;1796734;78;25815;-86
2021/07/24 06:06:27;;;;;;;18.60;13.62;;;;;;;16.78;75.10;97125.89;1785851;79;25662;-87
2021/07/24 06:08:53;;;;;;;17.40;12.63;;;;;;;16.86;75.17;97122.69;1750075;81;27197;-86
2021/07/24 06:11:20;;;;;;;15.93;13.28;;;;;;;16.95;75.03;97123.86;1739973;80;26041;-86
2021/07/24 06:13:47;;;;;;;17.92;13.90;;;;;;;17.03;75.03;97119.29;1722794;82;25859;-86
2021/07/24 06:16:13;;;;;;;15.72;12.40;;;;;;;17.13;74.94;97125.40;1741021;80;25801;-86
2021/07/24 06:18:40;;;;;;;17.37;12.93;;;;;;;17.21;74.94;97120.28;1813519;79;25796;-86
2021/07/24 06:21:08;;;;;;;19.20;12.85;;;;;;;17.28;74.67;97115.95;1794582;77;28223;-86
2021/07/24 06:23:35;;;;;;;16.52;12.75;;;;;;;17.38;74.45;97113.88;1779405;77;25796;-85
2021/07/24 06:26:02;;;;;;;16.32;12.18;;;;;;;17.45;74.23;97113.91;1793421;78;25698;-86
2021/07/24 06:28:30;;;;;;;14.85;11.88;;;;;;;17.54;74.21;97108.23;1777460;79;25843;-86
2021/07/24 06:30:56;;;;;;;15.90;12.78;;;;;;;17.63;73.98;97112.14;1799474;79;25660;-87
2021/07/24 06:33:23;;;;;;;15.88;11.73;;;;;;;17.72;73.96;97112.49;1778701;77;27398;-87
2021/07/24 06:35:50;;;;;;;15.25;11.68;;;;;;;17.83;74.00;97116.92;1792233;77;25782;-86
2021/07/24 06:38:16;;;;;;;13.60;11.68;;;;;;;17.93;73.60;97108.78;1812383;78;25730;-87
2021/07/24 06:40:43;;;;;;;13.90;11.73;;;;;;;18.02;73.52;97104.99;1775557;78;25998;-86
2021/07/24 06:43:09;;;;;;;15.38;12.15;;;;;;;18.12;73.35;97106.40;1766760;79;25814;-86
2021/07/24 06:45:37;;;;;;;16.45;12.45;;;;;;;18.23;73.25;97110.81;1783965;78;27424;-86
2021/07/24 06:48:04;;;;;;;15.53;11.88;;;;;;;18.34;73.38;97106.23;1807436;78;25770;-86
2021/07/24 06:50:31;;;;;;;14.68;11.78;;;;;;;18.45;73.18;97112.55;1811987;78;25763;-86
2021/07/24 06:53:00;;;;;;;16.23;11.63;;;;;;;18.56;73.10;97111.49;1769191;80;25746;-85
2021/07/24 06:55:27;;;;;;;16.82;11.38;;;;;;;18.64;72.87;97106.34;1775633;78;25237;-87
2021/07/24 06:57:55;;;;;;;14.33;10.95;;;;;;;18.72;72.38;97107.72;1783926;79;28078;-87
2021/07/24 07:00:22;;;;;;;13.05;11.12;;;;;;;18.83;72.40;97107.22;1767482;80;25752;-87
2021/07/24 07:02:49;;;;;;;14.80;10.23;;;;;;;18.95;72.49;97101.77;1762776;80;25766;-87
2021/07/24 07:05:15;;;;;;;12.90;10.25;;;;;;;19.04;71.94;97102.86;1774769;79;25868;-87
2021/07/24 07:07:42;;;;;;;11.75;10.18;;;;;;;19.14;71.73;97103.95;1795639;78;25838;-87
2021/07/24 07:10:09;;;;;;;12.47;10.13;;;;;;;19.24;71.54;97106.68;1789409;78;27680;-86
2021/07/24 07:12:36;;;;;;;11.90;10.18;;;;;;;19.33;71.15;97107.77;1769016;79;26498;-87
2021/07/24 07:15:08;;;;;;;13.32;10.35;;;;;;;19.41;70.72;97104.50;1770221;79;25920;-86
2021/07/24 07:17:31;;;;;;;11.75;10.38;;;;;;;19.48;70.42;97102.29;1773460;79;26223;-86
2021/07/24 07:19:58;;;;;;;14.10;9.85;;;;;;;19.56;70.27;97094.12;1712022;82;25769;-88
2021/07/24 07:22:25;;;;;;;14.35;10.93;;;;;;;19.67;70.32;97096.56;1711244;82;27395;-87
2021/07/24 07:24:51;;;;;;;12.37;10.50;;;;;;;19.76;70.03;97096.27;1780807;77;25806;-88
2021/07/24 07:27:18;;;;;;;15.55;10.60;;;;;;;19.85;69.76;97099.24;1785893;79;26428;-88
2021/07/24 07:29:44;;;;;;;14.65;10.82;;;;;;;19.95;69.77;97098.39;1792998;77;26084;-88
2021/07/24 07:32:11;;;;;;;11.33;10.13;;;;;;;20.07;70.16;97098.90;1800254;79;25867;-88
2021/07/24 07:34:37;;;;;;;12.90;10.72;;;;;;;20.22;70.20;97097.48;1816031;77;27539;-86
2021/07/24 07:37:04;;;;;;;14.75;11.50;;;;;;;20.37;70.17;97090.59;1802680;77;26116;-87
2021/07/24 07:39:31;;;;;;;13.13;10.23;;;;;;;20.48;69.57;97092.19;1789816;79;25736;-87
2021/07/24 07:41:57;;;;;;;14.35;11.12;;;;;;;20.58;69.48;97094.05;1787764;77;25763;-90
2021/07/24 07:44:24;;;;;;;11.80;10.20;;;;;;;20.69;69.28;97097.55;1781873;79;25746;-89
2021/07/24 07:46:53;;;;;;;14.87;11.00;;;;;;;20.84;69.07;97098.28;1811168;77;27433;-90
2021/07/24 07:49:19;;;;;;;16.65;11.05;;;;;;;21.03;69.03;97098.41;1771956;79;25989;-89
2021/07/24 07:51:47;;;;;;;16.67;10.32;;;;;;;21.33;69.39;97097.40;1760031;79;25859;-89
2021/07/24 07:54:13;;;;;;;13.08;10.98;;;;;;;21.70;68.98;97094.59;1758792;79;25723;-88
2021/07/24 07:56:40;;;;;;;12.90;10.03;;;;;;;22.08;68.48;97105.20;1740542;80;25728;-87
2021/07/24 07:59:06;;;;;;;12.18;10.03;;;;;;;22.84;67.20;97104.23;1717430;80;27429;-88
2021/07/24 08:01:34;;;;;;;16.35;10.90;;;;;;;22.84;67.20;97104.23;1726005;82;25858;-86
2021/07/24 08:04:01;;;;;;;12.00;10.43;;;;;;;23.26;66.53;97095.07;1740181;81;25781;-90
2021/07/24 08:06:28;;;;;;;10.98;9.80;;;;;;;23.65;65.79;97094.72;1752419;80;25613;-90
2021/07/24 08:08:55;;;;;;;10.58;9.48;;;;;;;24.08;65.40;97094.46;1758531;79;25809;-90
2021/07/24 08:11:22;;;;;;;12.13;9.73;;;;;;;24.45;64.48;97090.70;1781127;79;27422;-90
2021/07/24 08:13:48;;;;;;;9.93;8.60;;;;;;;24.69;63.86;97084.39;1759975;80;25994;-87
2021/07/24 08:16:16;;;;;;;9.88;8.73;;;;;;;25.07;63.37;97078.84;1765585;80;25651;-88
2021/07/24 08:18:44;;;;;;;12.28;9.25;;;;;;;25.44;62.28;97083.19;1735652;80;25453;-90
2021/07/24 08:21:10;;;;;;;12.28;9.00;;;;;;;25.76;61.39;97079.91;1799669;77;25805;-90
2021/07/24 08:23:37;;;;;;;11.88;8.55;;;;;;;25.88;60.50;97073.22;1781005;79;27431;-89
2021/07/24 08:26:05;;;;;;;10.43;8.40;;;;;;;26.07;60.47;97071.05;1807453;77;25739;-90
2021/07/24 08:28:31;;;;;;;14.68;9.30;;;;;;;26.41;59.75;97072.33;1766281;80;25951;-88
2021/07/24 08:31:00;;;;;;;12.33;8.28;;;;;;;26.69;59.08;97072.28;1750854;79;26082;-90
2021/07/24 08:33:27;;;;;;;9.73;8.25;;;;;;;26.96;58.51;97078.70;1768433;80;26323;-91
2021/07/24 08:35:57;;;;;;;9.70;8.80;;;;;;;27.08;57.74;97073.33;1759836;80;28282;-90
2021/07/24 08:38:24;;;;;;;9.83;8.40;;;;;;;26.92;56.27;97070.22;1786170;79;25750;-90
2021/07/24 08:40:50;;;;;;;10.63;8.20;;;;;;;26.83;56.01;97067.98;1786312;79;25850;-89
2021/07/24 08:43:17;;;;;;;8.85;7.95;;;;;;;27.15;56.03;97063.41;1746219;80;26384;-90
2021/07/24 08:45:45;;;;;;;8.03;7.25;;;;;;;27.57;55.70;97061.74;1798380;77;25885;-90
2021/07/24 08:48:12;;;;;;;9.98;7.85;;;;;;;27.94;55.39;97061.56;1782441;78;28181;-87
2021/07/24 08:50:44;;;;;;;9.08;7.20;;;;;;;28.22;55.08;97055.61;1796234;77;25315;-88
2021/07/24 08:53:11;;;;;;;8.48;7.67;;;;;;;28.45;53.95;97055.56;1764406;80;25804;-91
2021/07/24 08:55:41;;;;;;;8.78;7.25;;;;;;;28.77;53.27;97056.83;1791389;79;25608;-92
2021/07/24 08:58:11;;;;;;;8.43;7.53;;;;;;;28.82;52.60;97058.05;1707815;81;25915;-91
2021/07/24 09:00:38;;;;;;;9.10;7.42;;;;;;;29.07;52.29;97054.84;1743570;82;28363;-91
2021/07/24 09:03:04;;;;;;;7.87;7.08;;;;;;;29.38;51.59;97058.59;1766886;80;25874;-91
2021/07/24 09:05:33;;;;;;;10.15;7.00;;;;;;;29.62;51.51;97056.48;1781535;80;25771;-92
2021/07/24 09:08:03;;;;;;;9.13;7.22;;;;;;;29.96;50.66;97054.73;1790877;77;26063;-90
2021/07/24 09:10:30;;;;;;;10.60;7.75;;;;;;;30.19;50.32;97055.10;1779314;79;25279;-91
2021/07/24 09:12:57;;;;;;;8.40;7.00;;;;;;;30.47;49.78;97053.02;1775394;77;27412;-93
2021/07/24 09:15:27;;;;;;;8.03;6.50;;;;;;;30.75;49.91;97051.19;1774025;78;26299;-93
2021/07/24 09:17:53;;;;;;;10.90;7.55;;;;;;;30.93;48.63;97051.13;1759928;79;25840;-92
2021/07/24 09:20:26;;;;;;;8.90;6.85;;;;;;;31.12;48.15;97048.58;1753769;80;25824;-91
2021/07/24 09:22:53;;;;;;;9.68;6.80;;;;;;;31.27;47.55;97051.78;1772880;77;25292;-91
2021/07/24 09:25:22;;;;;;;9.23;6.35;;;;;;;31.29;47.12;97044.66;1801060;77;27527;-93
2021/07/24 09:27:51;;;;;;;9.55;6.60;;;;;;;31.08;46.83;97046.22;1797864;77;25751;-92
2021/07/24 09:30:34;;;;;;;9.50;7.00;;;;;;;31.22;46.84;97050.63;1797697;77;25242;-92
2021/07/24 09:33:16;;;;;;;8.05;6.03;;;;;;;31.34;45.85;97045.00;1736230;80;26448;-89
2021/07/24 09:35:55;;;;;;;7.87;6.67;;;;;;;31.50;45.43;97043.08;1779835;78;26383;-95
2021/07/24 09:38:33;;;;;;;9.88;7.00;;;;;;;31.63;44.56;97034.07;1763924;79;27347;-96
2021/07/24 09:41:02;;;;;;;7.37;6.67;;;;;;;31.55;43.38;97037.81;1785759;80;25516;-95
2021/07/24 09:43:39;;;;;;;6.92;6.22;;;;;;;30.98;43.14;97039.75;1802037;77;25261;-89
2021/07/24 09:46:19;;;;;;;10.18;6.70;;;;;;;30.72;43.58;97034.58;1803807;77;25444;-94
2021/07/24 09:48:48;;;;;;;7.28;6.58;;;;;;;30.77;43.45;97032.14;1778489;79;25790;-94
2021/07/24 09:51:36;;;;;;;8.55;6.90;;;;;;;30.86;42.91;97032.81;1796438;78;27249;-93
2021/07/24 09:54:04;;;;;;;8.95;6.50;;;;;;;30.86;42.26;97036.18;1790669;78;25829;-84
2021/07/24 09:56:44;;;;;;;9.10;6.90;;;;;;;30.89;42.41;97033.52;1804898;77;25713;-89
2021/07/24 09:59:31;;;;;;;8.28;7.37;;;;;;;30.80;42.26;97031.42;1809303;78;25646;-90
2021/07/24 10:02:08;;;;;;;7.87;6.35;;;;;;;30.85;42.25;97029.80;1803959;77;25440;-93
2021/07/24 10:04:40;;;;;;;8.15;6.75;;;;;;;30.94;42.29;97030.47;1809487;77;27587;-95
2021/07/24 10:07:08;;;;;;;;;;;;;;;30.97;42.19;97033.95;1806996;77;25803;-95
2021/07/24 10:09:40;;;;;;;7.08;6.37;;;;;;;31.00;40.47;97033.25;1775311;78;25725;-93
2021/07/24 10:12:15;;;;;;;12.88;6.85;;;;;;;30.95;41.34;97025.70;1781334;78;25773;-93
2021/07/24 10:14:42;;;;;;;8.90;6.90;;;;;;;30.95;40.99;97023.73;1768582;79;25303;-95
2021/07/24 10:17:12;;;;;;;6.95;6.25;;;;;;;31.01;40.66;97019.55;1727799;81;27401;-94
2021/07/24 10:19:40;;;;;;;9.13;6.45;;;;;;;31.08;39.80;97018.34;1714470;82;25984;-95
2021/07/24 10:22:06;;;;;;;8.20;6.67;;;;;;;31.11;40.42;97019.07;1741649;80;25726;-94
2021/07/24 10:24:33;;;;;;;8.05;6.40;;;;;;;31.11;40.24;97017.68;1736737;81;26493;-96
2021/07/24 10:27:18;;;;;;;8.85;6.35;;;;;;;31.14;39.98;97015.58;1738184;81;25779;-92
2021/07/24 10:29:58;;;;;;;10.90;6.95;;;;;;;31.14;39.69;97014.19;1745578;79;27321;-95
2021/07/24 10:32:27;;;;;;;8.65;7.28;;;;;;;31.08;39.60;97012.77;1694543;81;25375;-96
2021/07/24 10:34:55;;;;;;;8.53;7.12;;;;;;;31.05;40.21;97014.05;1782554;79;25294;-96
2021/07/24 10:37:39;;;;;;;8.13;6.97;;;;;;;31.06;40.13;97008.13;1769987;79;25462;-95
2021/07/24 10:40:25;;;;;;;9.73;7.20;;;;;;;31.09;40.35;97008.86;1760287;79;25832;-91
2021/07/24 10:42:53;;;;;;;7.40;6.67;;;;;;;31.12;40.47;97009.55;1818592;77;27416;-96
2021/07/24 10:45:37;;;;;;;9.20;6.62;;;;;;;31.24;40.56;97003.69;1813622;77;25748;-95
2021/07/24 10:48:26;;;;;;;7.05;6.40;;;;;;;31.36;40.65;97001.66;1808469;78;25238;-90
2021/07/24 10:51:00;;;;;;;7.08;6.37;;;;;;;31.46;39.86;97005.32;1799821;78;25442;-95
2021/07/24 10:53:28;;;;;;;8.83;6.67;;;;;;;31.47;39.59;97004.73;1773613;78;25341;-96
2021/07/24 10:55:57;;;;;;;7.42;6.58;;;;;;;31.46;39.47;97005.91;1781489;77;27130;-89
2021/07/24 10:58:25;;;;;;;6.83;6.15;;;;;;;31.51;39.68;97002.87;1762537;80;26701;-96
2021/07/24 11:00:58;;;;;;;7.17;6.47;;;;;;;31.49;39.07;96992.65;1776569;78;25414;-93
2021/07/24 11:03:46;;;;;;;6.80;6.05;;;;;;;31.55;38.84;96995.97;1807666;77;25780;-94
2021/07/24 11:06:28;;;;;;;8.08;6.50;;;;;;;31.64;39.15;96991.09;1808311;77;25810;-94
2021/07/24 11:09:11;;;;;;;7.05;6.10;;;;;;;31.66;38.82;96994.30;1791871;77;27664;-95
2021/07/24 11:11:44;;;;;;;7.05;6.40;;;;;;;31.70;38.95;96994.64;1794180;77;25295;-96
2021/07/24 11:14:42;;;;;;;6.90;6.20;;;;;;;31.76;38.50;96993.80;1773091;78;25708;-96
2021/07/24 11:17:12;;;;;;;7.50;6.80;;;;;;;31.80;38.50;96991.31;1784752;78;25402;-96
2021/07/24 11:19:43;;;;;;;9.45;7.30;;;;;;;31.85;39.10;96992.45;1759230;80;25482;-94
2021/07/24 11:22:22;;;;;;;7.95;6.10;;;;;;;31.83;39.11;96989.20;1772932;79;27421;-88
2021/07/24 11:24:56;;;;;;;6.90;5.97;;;;;;;31.74;38.70;96989.97;1791103;78;25656;-90
2021/07/24 11:27:32;;;;;;;7.08;6.40;;;;;;;31.77;37.99;96983.65;1765046;79;25835;-90
2021/07/24 11:30:09;;;;;;;8.45;5.90;;;;;;;31.88;38.08;96982.52;1781794;79;26159;-95
2021/07/24 11:32:39;;;;;;;7.62;6.55;;;;;;;31.94;37.56;96978.31;1776618;79;25870;-92
2021/07/24 11:35:09;;;;;;;7.40;6.70;;;;;;;31.91;36.76;96989.38;1780849;78;27566;-92